KEGE

Eagle County Regional Airport

Eagle, Colorado, USA
METAR KEGE 112356Z 26006KT 10SM CLR 03/M09 A3014 RMK AO2 SLP253 T00331094 10072 21033 51000
Observed Flight Rules
Dec-11 @ 23:56 UTC (56 minutes ago) Visual Flight Rules
Wind Visibility Clouds
260° at 6 knots 10 miles
  • Clear skies
Temperatures Readings
Current 3°C / 37°F
Dewpoint -9°C / 16°F
Humidity 41%
Altimeter 30.14" Hg
Pressure 1025.3 hPa
Elevation 1993
METAR KEGE 112356Z 26006KT 10SM CLR 03/M09 A3014 RMK AO2 SLP253 T00331094 10072 21033 51000
Observed Flight Rules
Dec-11 @ 23:56 UTC
(56 minutes ago)
VFR
Wind Visibility
260° at 6 knots 10 miles
Clouds
  • Clear skies
Temperature Dewpoint
3°C / 37°F -9°C / 16°F
Humidity Altimeter Pressure
41% 30.14" Hg 1025.3 hPa